createdAt,value
2023-06-27T00:00:58.027Z,36.11
2023-06-27T00:01:58.120Z,36.13
2023-06-27T00:02:58.290Z,36.12
2023-06-27T00:03:58.401Z,36.12
2023-06-27T00:04:58.281Z,36.11
2023-06-27T00:05:58.330Z,36.11
2023-06-27T00:06:58.433Z,36.12
2023-06-27T00:07:58.464Z,36.12
2023-06-27T00:08:58.518Z,36.13
2023-06-27T00:09:58.667Z,36.11
2023-06-27T00:10:58.628Z,36.12
2023-06-27T00:11:58.688Z,36.14
2023-06-27T00:12:58.761Z,36.13
2023-06-27T00:13:58.833Z,36.13
2023-06-27T00:14:58.929Z,36.13
2023-06-27T00:15:58.961Z,36.13
2023-06-27T00:16:59.020Z,36.14
2023-06-27T00:17:59.099Z,36.13
2023-06-27T00:18:59.131Z,36.14
2023-06-27T00:19:59.380Z,36.11
2023-06-27T00:20:59.257Z,36.13
2023-06-27T00:21:59.320Z,36.14
2023-06-27T00:22:59.382Z,36.14
2023-06-27T00:23:59.440Z,36.13
2023-06-27T00:24:59.506Z,36.15
2023-06-27T00:25:59.551Z,36.17
2023-06-27T00:26:59.611Z,36.16
2023-06-27T00:27:59.674Z,36.20
2023-06-27T00:28:59.754Z,36.17
2023-06-27T00:29:59.778Z,36.19
2023-06-27T00:30:59.887Z,36.17
2023-06-27T00:31:59.890Z,36.17
2023-06-27T00:32:59.960Z,36.17
2023-06-27T00:34:00.031Z,36.18
2023-06-27T00:35:00.070Z,36.21
2023-06-27T00:36:00.133Z,36.17
2023-06-27T00:37:00.196Z,36.19
2023-06-27T00:38:00.281Z,36.20
2023-06-27T00:39:00.308Z,36.20
2023-06-27T00:40:00.394Z,36.20
2023-06-27T00:41:00.447Z,36.20
2023-06-27T00:42:00.490Z,36.20
2023-06-27T00:43:00.561Z,36.21
2023-06-27T00:44:00.627Z,36.20
2023-06-27T00:45:00.678Z,36.22
2023-06-27T00:46:00.751Z,36.21
2023-06-27T00:47:00.809Z,36.21
2023-06-27T00:48:00.931Z,36.22
2023-06-27T00:49:00.993Z,36.22
2023-06-27T00:50:01.016Z,36.21
2023-06-27T00:51:01.070Z,36.22
2023-06-27T00:52:01.108Z,36.22
2023-06-27T00:53:01.176Z,36.23
2023-06-27T00:54:01.263Z,36.23
2023-06-27T00:55:01.289Z,36.26
2023-06-27T00:56:01.353Z,36.24
2023-06-27T00:57:01.425Z,36.24
2023-06-27T00:58:01.558Z,36.25
2023-06-27T00:59:01.567Z,36.23
2023-06-27T01:00:01.610Z,36.24
2023-06-27T01:01:01.938Z,36.26
2023-06-27T01:02:01.720Z,36.24
2023-06-27T01:03:01.844Z,36.23
2023-06-27T01:04:01.909Z,36.25
2023-06-27T01:05:01.920Z,36.24
2023-06-27T01:06:09.008Z,36.26
2023-06-27T01:07:02.005Z,36.27
2023-06-27T01:08:01.966Z,36.24
2023-06-27T01:09:02.301Z,36.26
2023-06-27T01:10:01.943Z,36.26
2023-06-27T01:11:01.936Z,36.27
2023-06-27T01:12:01.937Z,36.28
2023-06-27T01:13:01.917Z,36.26
2023-06-27T01:14:01.914Z,36.27
2023-06-27T01:15:01.913Z,36.27
2023-06-27T01:16:01.914Z,36.28
2023-06-27T01:17:01.889Z,36.27
2023-06-27T01:18:01.932Z,36.28
2023-06-27T01:19:01.874Z,36.28
2023-06-27T01:20:01.863Z,36.29
2023-06-27T01:21:01.856Z,36.29
2023-06-27T01:22:01.853Z,36.30
2023-06-27T01:23:01.848Z,36.29
2023-06-27T01:24:01.848Z,36.28
2023-06-27T01:25:01.853Z,36.30
2023-06-27T01:26:01.825Z,36.30
2023-06-27T01:27:01.822Z,36.31
2023-06-27T01:28:01.811Z,36.30
2023-06-27T01:29:01.870Z,36.29
2023-06-27T01:30:01.918Z,36.30
2023-06-27T01:31:02.050Z,36.31
2023-06-27T01:32:02.049Z,36.30
2023-06-27T01:33:02.166Z,36.31
2023-06-27T01:34:02.146Z,36.31
2023-06-27T01:35:02.221Z,36.32
2023-06-27T01:36:02.261Z,36.31
2023-06-27T01:37:02.304Z,36.34
2023-06-27T01:38:02.381Z,36.33
2023-06-27T01:39:02.436Z,36.34
2023-06-27T01:40:02.501Z,36.30
2023-06-27T01:41:02.536Z,36.32
2023-06-27T01:42:02.696Z,36.32
2023-06-27T01:43:02.700Z,36.34
2023-06-27T01:44:02.756Z,36.34
2023-06-27T01:45:02.789Z,36.34
2023-06-27T01:46:02.879Z,36.32
2023-06-27T01:47:02.900Z,36.35
2023-06-27T01:48:03.009Z,36.36
2023-06-27T01:49:03.011Z,36.34
2023-06-27T01:50:03.067Z,36.35
2023-06-27T01:51:03.116Z,36.37
2023-06-27T01:52:03.187Z,36.34
2023-06-27T01:53:03.250Z,36.34
2023-06-27T01:54:03.330Z,36.35
2023-06-27T01:55:03.383Z,36.36
2023-06-27T01:56:03.424Z,36.36
2023-06-27T01:57:03.489Z,36.36
2023-06-27T01:58:03.539Z,36.37
2023-06-27T01:59:03.601Z,36.37
2023-06-27T02:00:03.652Z,36.37
2023-06-27T02:01:03.752Z,36.37
2023-06-27T02:02:03.867Z,36.38
2023-06-27T02:03:03.974Z,36.39
2023-06-27T02:04:03.879Z,36.39
2023-06-27T02:05:03.925Z,36.39
2023-06-27T02:06:03.995Z,36.38
2023-06-27T02:07:04.074Z,36.38
2023-06-27T02:08:04.107Z,36.38
2023-06-27T02:09:04.197Z,36.38
2023-06-27T02:10:04.236Z,36.39
2023-06-27T02:11:04.304Z,36.41
2023-06-27T02:12:04.352Z,36.37
2023-06-27T02:13:04.414Z,36.41
2023-06-27T02:14:04.495Z,36.42
2023-06-27T02:15:04.539Z,36.39
2023-06-27T02:16:04.596Z,36.41
2023-06-27T02:17:04.653Z,36.41
2023-06-27T02:18:04.741Z,36.41
2023-06-27T02:19:04.773Z,36.42
2023-06-27T02:20:04.843Z,36.40
2023-06-27T02:21:04.905Z,36.43
2023-06-27T02:22:04.958Z,36.39
2023-06-27T02:23:05.029Z,36.42
2023-06-27T02:24:05.067Z,36.44
2023-06-27T02:25:05.133Z,36.42
2023-06-27T02:26:05.192Z,36.42
2023-06-27T02:27:05.256Z,36.41
2023-06-27T02:28:05.324Z,36.41
2023-06-27T02:29:05.399Z,36.42
2023-06-27T02:30:05.450Z,36.43
2023-06-27T02:31:05.592Z,36.42
2023-06-27T02:32:05.570Z,36.45
2023-06-27T02:33:05.649Z,36.44
2023-06-27T02:34:05.678Z,36.43
2023-06-27T02:35:05.737Z,36.45
2023-06-27T02:36:05.796Z,36.45
2023-06-27T02:37:05.881Z,36.44
2023-06-27T02:38:05.928Z,36.45
2023-06-27T02:39:05.985Z,36.45
2023-06-27T02:40:06.050Z,36.46
2023-06-27T02:41:06.102Z,36.46
2023-06-27T02:42:06.170Z,36.47
2023-06-27T02:43:06.213Z,36.46
2023-06-27T02:44:06.284Z,36.44
2023-06-27T02:45:06.345Z,36.48
2023-06-27T02:46:06.445Z,36.47
2023-06-27T02:47:06.494Z,36.47
2023-06-27T02:48:06.561Z,36.46
2023-06-27T02:49:06.611Z,36.46
2023-06-27T02:50:06.656Z,36.47
2023-06-27T02:51:06.713Z,36.47
2023-06-27T02:52:06.772Z,36.46
2023-06-27T02:53:06.860Z,36.45
2023-06-27T02:54:07.347Z,36.47
2023-06-27T02:55:06.970Z,36.46
2023-06-27T02:56:07.032Z,36.48
2023-06-27T02:57:07.050Z,36.50
2023-06-27T02:58:07.101Z,36.50
2023-06-27T02:59:07.352Z,36.49
2023-06-27T03:00:07.206Z,36.48
2023-06-27T03:01:07.269Z,36.48
2023-06-27T03:02:07.399Z,36.49
2023-06-27T03:03:07.427Z,36.51
2023-06-27T03:04:17.739Z,36.49
2023-06-27T03:05:08.395Z,36.51
2023-06-27T03:06:07.403Z,36.52
2023-06-27T03:07:07.497Z,36.50
2023-06-27T03:08:07.497Z,36.54
2023-06-27T03:09:07.855Z,36.53
2023-06-27T03:10:07.619Z,36.51
2023-06-27T03:11:07.685Z,36.53
2023-06-27T03:12:07.729Z,36.51
2023-06-27T03:13:07.774Z,36.52
2023-06-27T03:14:07.837Z,36.53
2023-06-27T03:15:07.889Z,36.53
2023-06-27T03:16:07.928Z,36.52
2023-06-27T03:17:07.985Z,36.52
2023-06-27T03:18:08.073Z,36.55
2023-06-27T03:19:08.059Z,36.50
2023-06-27T03:20:08.110Z,36.54
2023-06-27T03:21:08.144Z,36.53
2023-06-27T03:22:08.220Z,36.54
2023-06-27T03:23:08.256Z,36.51
2023-06-27T03:24:08.318Z,36.54
2023-06-27T03:25:08.363Z,36.54
2023-06-27T03:26:08.402Z,36.56
2023-06-27T03:27:08.874Z,36.51
2023-06-27T03:28:08.517Z,36.56
2023-06-27T03:29:08.566Z,36.53
2023-06-27T03:30:08.637Z,36.55
2023-06-27T03:31:08.651Z,36.56
2023-06-27T03:32:08.743Z,36.54
2023-06-27T03:33:08.822Z,36.56
2023-06-27T03:34:08.807Z,36.54
2023-06-27T03:35:08.819Z,36.56
2023-06-27T03:36:09.975Z,36.56
2023-06-27T03:37:09.071Z,36.54
2023-06-27T03:38:09.113Z,36.57
2023-06-27T03:39:09.157Z,36.53
2023-06-27T03:40:09.199Z,36.57
2023-06-27T03:41:09.235Z,36.56
2023-06-27T03:42:09.280Z,36.56
2023-06-27T03:43:09.282Z,36.57
2023-06-27T03:44:09.377Z,36.56
2023-06-27T03:45:09.352Z,36.59
2023-06-27T03:46:09.407Z,36.54
2023-06-27T03:47:09.434Z,36.57
2023-06-27T03:48:09.463Z,36.59
2023-06-27T03:49:09.500Z,36.59
2023-06-27T03:50:09.533Z,36.59
2023-06-27T03:51:09.583Z,36.56
2023-06-27T03:52:09.603Z,36.57
2023-06-27T03:53:09.632Z,36.61
2023-06-27T03:54:09.646Z,36.59
2023-06-27T03:55:09.678Z,36.60
2023-06-27T03:56:09.682Z,36.58
2023-06-27T03:57:09.713Z,36.59
2023-06-27T03:58:09.717Z,36.61
2023-06-27T03:59:09.745Z,36.60
2023-06-27T04:00:09.765Z,36.60
2023-06-27T04:01:09.772Z,36.59
2023-06-27T04:02:09.790Z,36.59
2023-06-27T04:03:09.883Z,36.60
2023-06-27T04:04:11.629Z,36.60
2023-06-27T04:05:09.876Z,36.61
2023-06-27T04:06:09.784Z,36.60
2023-06-27T04:07:09.844Z,36.61
2023-06-27T04:08:09.764Z,36.59
2023-06-27T04:09:09.761Z,36.60
2023-06-27T04:10:09.755Z,36.62
2023-06-27T04:11:09.765Z,36.63
2023-06-27T04:12:09.773Z,36.59
2023-06-27T04:13:09.739Z,36.62
2023-06-27T04:14:09.727Z,36.62
2023-06-27T04:15:09.712Z,36.61
2023-06-27T04:16:09.715Z,36.61
2023-06-27T04:17:09.839Z,36.63
2023-06-27T04:18:09.757Z,36.60
2023-06-27T04:19:09.705Z,36.61
2023-06-27T04:20:09.697Z,36.60
2023-06-27T04:21:09.684Z,36.60
2023-06-27T04:22:09.675Z,36.61
2023-06-27T04:23:09.698Z,36.59
2023-06-27T04:24:09.895Z,36.60
2023-06-27T04:25:09.656Z,36.63
2023-06-27T04:26:09.647Z,36.58
2023-06-27T04:27:09.649Z,36.61
2023-06-27T04:28:09.630Z,36.62
2023-06-27T04:29:09.648Z,36.61
2023-06-27T04:30:09.639Z,36.63
2023-06-27T04:31:09.625Z,36.63
2023-06-27T04:32:09.708Z,36.60
2023-06-27T04:33:09.677Z,36.62
2023-06-27T04:34:09.606Z,36.61
2023-06-27T04:35:09.596Z,36.61
2023-06-27T04:36:09.580Z,36.63
2023-06-27T04:37:09.588Z,36.63
2023-06-27T04:38:10.323Z,36.61
2023-06-27T04:39:09.560Z,36.62
2023-06-27T04:40:09.555Z,36.62
2023-06-27T04:41:09.542Z,36.61
2023-06-27T04:42:09.533Z,36.62
2023-06-27T04:43:09.533Z,36.62
2023-06-27T04:44:09.539Z,36.66
2023-06-27T04:45:09.515Z,36.64
2023-06-27T04:46:09.533Z,36.62
2023-06-27T04:47:09.508Z,36.63
2023-06-27T04:48:09.507Z,36.63
2023-06-27T04:49:09.495Z,36.64
2023-06-27T04:50:09.479Z,36.64
2023-06-27T04:51:09.499Z,36.64
2023-06-27T04:52:09.467Z,36.65
2023-06-27T04:53:09.483Z,36.67
2023-06-27T04:54:09.484Z,36.63
2023-06-27T04:55:09.454Z,36.64
2023-06-27T04:56:09.432Z,36.66
2023-06-27T04:57:13.083Z,36.63
2023-06-27T04:58:09.445Z,36.64
2023-06-27T04:59:09.429Z,36.64
2023-06-27T05:00:09.412Z,36.64
2023-06-27T05:01:09.459Z,36.65
2023-06-27T05:02:09.410Z,36.64
2023-06-27T05:03:09.450Z,36.63
2023-06-27T05:04:09.388Z,36.63
2023-06-27T05:05:09.494Z,36.62
2023-06-27T05:06:09.380Z,36.64
2023-06-27T05:07:09.422Z,36.65
2023-06-27T05:08:09.360Z,36.64
2023-06-27T05:09:09.367Z,36.63
2023-06-27T05:10:09.349Z,36.64
2023-06-27T05:11:09.341Z,36.63
2023-06-27T05:12:09.363Z,36.63
2023-06-27T05:13:09.323Z,36.63
2023-06-27T05:14:09.337Z,36.63
2023-06-27T05:15:09.311Z,36.61
2023-06-27T05:16:09.318Z,36.63
2023-06-27T05:17:09.313Z,36.64
2023-06-27T05:18:09.288Z,36.62
2023-06-27T05:19:09.299Z,36.63
2023-06-27T05:20:09.283Z,36.63
2023-06-27T05:21:09.283Z,36.63
2023-06-27T05:22:09.271Z,36.64
2023-06-27T05:23:09.281Z,36.63
2023-06-27T05:24:09.268Z,36.63
2023-06-27T05:25:09.270Z,36.63
2023-06-27T05:26:09.260Z,36.62
2023-06-27T05:27:09.237Z,36.63
2023-06-27T05:28:09.410Z,36.62
2023-06-27T05:29:09.309Z,36.60
2023-06-27T05:30:09.360Z,36.62
2023-06-27T05:31:09.463Z,36.60
2023-06-27T05:32:09.438Z,36.59
2023-06-27T05:33:09.563Z,36.63
2023-06-27T05:34:09.504Z,37.09
2023-06-27T05:35:09.522Z,36.44
2023-06-27T05:36:09.674Z,36.09
2023-06-27T05:37:09.664Z,35.35
2023-06-27T05:38:09.604Z,35.04
2023-06-27T05:39:09.630Z,36.32
2023-06-27T05:40:09.614Z,36.48
2023-06-27T05:41:09.662Z,36.03
2023-06-27T05:42:09.673Z,35.22
2023-06-27T05:43:09.692Z,34.94
2023-06-27T05:44:09.673Z,35.05
2023-06-27T05:45:09.662Z,35.19
2023-06-27T05:46:09.643Z,35.45
2023-06-27T05:47:09.654Z,35.19
2023-06-27T05:48:09.693Z,35.31
2023-06-27T05:49:09.656Z,35.18
2023-06-27T05:50:09.677Z,34.95
2023-06-27T05:51:09.756Z,34.86
2023-06-27T05:52:09.678Z,35.22
2023-06-27T05:53:09.700Z,34.95
2023-06-27T05:54:09.701Z,35.01
2023-06-27T05:55:09.716Z,35.04
2023-06-27T05:56:09.741Z,35.11
2023-06-27T05:57:09.751Z,35.04
2023-06-27T05:58:09.755Z,35.11
2023-06-27T05:59:09.816Z,34.94
2023-06-27T06:00:09.803Z,35.07
2023-06-27T06:01:09.766Z,35.25
2023-06-27T06:02:09.854Z,35.27
2023-06-27T06:03:09.933Z,35.43
2023-06-27T06:04:09.841Z,35.61
2023-06-27T06:05:09.814Z,35.61
2023-06-27T06:06:09.773Z,35.58
2023-06-27T06:07:09.803Z,35.72
2023-06-27T06:08:09.785Z,35.97
2023-06-27T06:09:09.803Z,35.89
2023-06-27T06:10:09.879Z,35.94
2023-06-27T06:11:09.856Z,36.02
2023-06-27T06:12:09.952Z,36.09
2023-06-27T06:13:09.982Z,36.21
2023-06-27T06:14:10.109Z,36.10
2023-06-27T06:15:10.123Z,36.26
2023-06-27T06:16:10.185Z,36.52
2023-06-27T06:17:10.238Z,36.74
2023-06-27T06:18:10.394Z,36.45
2023-06-27T06:19:10.359Z,36.57
2023-06-27T06:20:10.513Z,36.38
2023-06-27T06:21:10.454Z,36.05
2023-06-27T06:22:10.499Z,35.73
2023-06-27T06:23:10.513Z,35.28
2023-06-27T06:24:10.519Z,35.61
2023-06-27T06:25:10.529Z,34.66
2023-06-27T06:26:10.553Z,34.94
2023-06-27T06:27:10.558Z,34.30
2023-06-27T06:28:10.546Z,34.58
2023-06-27T06:29:10.952Z,34.21
2023-06-27T06:30:10.582Z,34.48
2023-06-27T06:31:10.627Z,34.59
2023-06-27T06:32:10.630Z,34.53
2023-06-27T06:33:10.659Z,34.69
2023-06-27T06:34:10.635Z,34.23
2023-06-27T06:35:10.640Z,33.92
2023-06-27T06:36:10.626Z,34.00
2023-06-27T06:37:10.669Z,34.08
2023-06-27T06:38:10.631Z,34.30
2023-06-27T06:39:10.990Z,34.65
2023-06-27T06:40:10.650Z,34.44
2023-06-27T06:41:10.659Z,34.32
2023-06-27T06:42:10.685Z,34.63
2023-06-27T06:43:10.714Z,34.64
2023-06-27T06:44:10.717Z,34.92
2023-06-27T06:45:10.761Z,35.19
2023-06-27T06:46:10.884Z,35.17
2023-06-27T06:47:10.759Z,35.20
2023-06-27T06:48:10.777Z,34.99
2023-06-27T06:49:10.801Z,35.10
2023-06-27T06:50:10.795Z,35.00
2023-06-27T06:51:10.811Z,35.13
2023-06-27T06:52:10.818Z,35.23
2023-06-27T06:53:10.831Z,34.91
2023-06-27T06:54:10.828Z,35.01
2023-06-27T06:55:10.832Z,34.65
2023-06-27T06:56:10.845Z,34.80
2023-06-27T06:57:10.851Z,34.93
2023-06-27T06:58:11.898Z,34.64
2023-06-27T06:59:10.912Z,34.35
2023-06-27T07:00:10.884Z,34.25
2023-06-27T07:01:11.000Z,34.39
2023-06-27T07:02:10.940Z,33.47
2023-06-27T07:03:10.996Z,34.07
2023-06-27T07:04:11.028Z,34.07
2023-06-27T07:05:10.974Z,34.03
2023-06-27T07:06:10.977Z,34.15
2023-06-27T07:07:11.075Z,34.19
2023-06-27T07:08:11.040Z,34.06
2023-06-27T07:09:11.052Z,33.53
2023-06-27T07:10:11.079Z,33.79
2023-06-27T07:11:11.091Z,33.84
2023-06-27T07:12:11.285Z,33.98
2023-06-27T07:13:11.169Z,34.12
2023-06-27T07:14:11.229Z,34.41
2023-06-27T07:15:11.240Z,34.66
2023-06-27T07:16:11.363Z,34.48
2023-06-27T07:17:11.320Z,34.67
2023-06-27T07:18:11.359Z,34.92
2023-06-27T07:19:11.403Z,34.93
2023-06-27T07:20:11.446Z,34.98
2023-06-27T07:21:11.543Z,35.24
2023-06-27T07:22:11.632Z,35.09
2023-06-27T07:23:11.607Z,35.32
2023-06-27T07:24:11.678Z,35.37
2023-06-27T07:25:11.721Z,35.30
2023-06-27T07:26:11.770Z,35.13
2023-06-27T07:27:11.853Z,35.50
2023-06-27T07:28:11.886Z,35.56
2023-06-27T07:29:12.009Z,35.81
2023-06-27T07:30:12.007Z,35.75
2023-06-27T07:31:12.189Z,35.78
2023-06-27T07:32:12.120Z,35.95
2023-06-27T07:33:12.219Z,35.97
2023-06-27T07:34:12.276Z,35.79
2023-06-27T07:35:12.330Z,35.87
2023-06-27T07:36:12.383Z,36.26
2023-06-27T07:37:12.419Z,36.10
2023-06-27T07:38:12.446Z,35.80
2023-06-27T07:39:12.506Z,35.97
2023-06-27T07:40:12.538Z,35.98
2023-06-27T07:41:12.570Z,36.11
2023-06-27T07:42:12.581Z,36.01
2023-06-27T07:43:12.622Z,36.02
2023-06-27T07:44:13.054Z,35.71
2023-06-27T07:45:12.634Z,36.06
2023-06-27T07:46:12.620Z,36.05
2023-06-27T07:47:12.605Z,35.98
2023-06-27T07:48:12.711Z,35.76
2023-06-27T07:49:12.966Z,35.91
2023-06-27T07:50:12.657Z,35.69
2023-06-27T07:51:12.663Z,35.93
2023-06-27T07:52:12.656Z,35.50
2023-06-27T07:53:12.750Z,35.77
2023-06-27T07:54:12.727Z,35.68
2023-06-27T07:55:12.708Z,35.73
2023-06-27T07:56:12.700Z,35.71
2023-06-27T07:57:12.728Z,36.14
2023-06-27T07:58:12.785Z,36.00
2023-06-27T07:59:12.972Z,36.03
2023-06-27T08:00:13.908Z,36.10
2023-06-27T08:01:12.877Z,36.17
2023-06-27T08:02:12.931Z,36.34
2023-06-27T08:03:13.033Z,36.47
2023-06-27T08:04:13.038Z,36.28
2023-06-27T08:05:12.963Z,36.19
2023-06-27T08:06:12.974Z,36.47
2023-06-27T08:07:13.150Z,36.73
2023-06-27T08:08:13.064Z,36.78
2023-06-27T08:09:13.525Z,37.11
2023-06-27T08:10:13.151Z,36.70
2023-06-27T08:11:13.111Z,36.87
2023-06-27T08:12:13.131Z,36.64
2023-06-27T08:13:13.158Z,36.43
2023-06-27T08:14:13.150Z,36.64
2023-06-27T08:15:13.167Z,36.95
2023-06-27T08:16:13.209Z,37.58
2023-06-27T08:17:13.242Z,37.36
2023-06-27T08:18:13.303Z,36.91
2023-06-27T08:19:13.252Z,36.61
2023-06-27T08:20:13.305Z,36.77
2023-06-27T08:21:13.334Z,37.36
2023-06-27T08:22:13.320Z,37.05
2023-06-27T08:23:13.346Z,37.14
2023-06-27T08:24:13.524Z,37.24
2023-06-27T08:25:13.406Z,36.57
2023-06-27T08:26:13.440Z,36.54
2023-06-27T08:27:13.471Z,36.37
2023-06-27T08:28:13.518Z,36.50
2023-06-27T08:29:13.539Z,36.50
2023-06-27T08:30:13.571Z,36.56
2023-06-27T08:31:13.705Z,36.34
2023-06-27T08:32:13.662Z,36.46
2023-06-27T08:33:13.770Z,36.39
2023-06-27T08:34:13.736Z,36.40
2023-06-27T08:35:13.769Z,36.22
2023-06-27T08:36:13.878Z,36.44
2023-06-27T08:37:13.845Z,36.42
2023-06-27T08:38:13.895Z,36.30
2023-06-27T08:39:13.985Z,36.54
2023-06-27T08:40:13.994Z,36.58
2023-06-27T08:41:14.012Z,36.90
2023-06-27T08:42:14.018Z,37.32
2023-06-27T08:43:14.054Z,37.38
2023-06-27T08:44:14.091Z,37.82
2023-06-27T08:45:14.098Z,37.64
2023-06-27T08:46:14.124Z,37.60
2023-06-27T08:47:14.116Z,38.02
2023-06-27T08:48:14.110Z,37.95
2023-06-27T08:49:14.112Z,37.94
2023-06-27T08:50:14.087Z,38.37
2023-06-27T08:51:14.105Z,38.11
2023-06-27T08:52:14.101Z,38.53
2023-06-27T08:53:14.104Z,38.44
2023-06-27T08:54:14.106Z,39.44
2023-06-27T08:55:14.154Z,39.74
2023-06-27T08:56:14.116Z,39.36
2023-06-27T08:57:14.163Z,39.73
2023-06-27T08:58:14.187Z,39.30
2023-06-27T08:59:14.527Z,39.53
2023-06-27T09:00:14.307Z,39.12
2023-06-27T09:01:14.404Z,38.32
2023-06-27T09:02:14.385Z,38.08
2023-06-27T09:03:14.530Z,37.39
2023-06-27T09:04:14.706Z,37.21
2023-06-27T09:05:14.533Z,36.86
2023-06-27T09:06:14.506Z,36.10
2023-06-27T09:07:14.550Z,35.57
2023-06-27T09:08:14.544Z,35.80
2023-06-27T09:09:15.009Z,36.36
2023-06-27T09:10:14.571Z,36.06
2023-06-27T09:11:14.550Z,35.86
2023-06-27T09:12:14.543Z,36.06
2023-06-27T09:13:14.573Z,36.69
2023-06-27T09:14:14.590Z,36.75
2023-06-27T09:15:14.596Z,37.09
2023-06-27T09:16:14.730Z,37.01
2023-06-27T09:17:14.593Z,36.94
2023-06-27T09:18:14.629Z,36.83
2023-06-27T09:19:14.643Z,36.86
2023-06-27T09:20:14.645Z,36.97
2023-06-27T09:21:14.621Z,36.49
2023-06-27T09:22:14.613Z,36.18
2023-06-27T09:23:14.597Z,36.48
2023-06-27T09:24:15.109Z,36.56
2023-06-27T09:25:14.594Z,36.52
2023-06-27T09:26:14.582Z,36.40
2023-06-27T09:27:14.606Z,36.44
2023-06-27T09:28:14.618Z,36.32
2023-06-27T09:29:15.018Z,36.17
2023-06-27T09:30:14.658Z,36.06
2023-06-27T09:31:14.738Z,36.10
2023-06-27T09:32:14.620Z,36.01
2023-06-27T09:33:14.605Z,35.96
2023-06-27T09:34:15.033Z,35.99
2023-06-27T09:35:15.541Z,35.62
2023-06-27T09:36:14.658Z,35.59
2023-06-27T09:39:15.055Z,35.41
2023-06-27T09:40:14.588Z,35.47
2023-06-27T09:41:14.564Z,35.25
2023-06-27T09:42:14.581Z,35.30
2023-06-27T09:43:14.652Z,35.10
2023-06-27T09:44:14.638Z,35.21
2023-06-27T09:45:14.577Z,35.19
2023-06-27T09:46:14.535Z,35.18
2023-06-27T09:47:14.552Z,35.13
2023-06-27T09:48:14.542Z,34.92
2023-06-27T09:49:15.034Z,34.77
2023-06-27T09:50:14.507Z,34.81
2023-06-27T09:51:14.512Z,34.76
2023-06-27T09:52:14.495Z,34.77
2023-06-27T09:53:14.486Z,34.72
2023-06-27T09:54:17.677Z,34.86
2023-06-27T09:55:14.477Z,34.97
2023-06-27T09:56:14.488Z,35.01
2023-06-27T09:57:14.516Z,35.15
2023-06-27T09:58:14.456Z,35.17
2023-06-27T09:59:23.042Z,34.93
2023-06-27T10:00:15.454Z,34.98
2023-06-27T10:01:14.457Z,35.02
2023-06-27T10:02:14.476Z,35.05
2023-06-27T10:03:14.506Z,35.09
2023-06-27T10:04:14.465Z,35.12
2023-06-27T10:05:14.504Z,35.20
2023-06-27T10:06:14.635Z,35.10
2023-06-27T10:07:14.656Z,34.95
2023-06-27T10:08:14.408Z,35.03
2023-06-27T10:09:14.445Z,35.20
2023-06-27T10:10:14.407Z,35.22
2023-06-27T10:11:14.373Z,35.07
2023-06-27T10:12:14.373Z,35.11
2023-06-27T10:13:14.394Z,34.98
2023-06-27T10:14:14.583Z,34.98
2023-06-27T10:15:14.354Z,34.99
2023-06-27T10:16:14.350Z,35.07
2023-06-27T10:17:14.517Z,35.12
2023-06-27T10:18:14.339Z,35.20
2023-06-27T10:19:14.370Z,35.07
2023-06-27T10:20:14.330Z,35.01
2023-06-27T10:21:14.316Z,34.84
2023-06-27T10:22:14.316Z,34.94
2023-06-27T10:23:14.366Z,35.06
2023-06-27T10:24:14.347Z,35.08
2023-06-27T10:25:14.301Z,35.05
2023-06-27T10:26:14.301Z,35.72
2023-06-27T10:27:14.466Z,35.92
2023-06-27T10:28:14.271Z,36.35
2023-06-27T10:29:14.294Z,36.48
2023-06-27T10:30:14.262Z,38.50
2023-06-27T10:31:14.326Z,39.88
2023-06-27T10:32:14.259Z,38.58
2023-06-27T10:33:14.268Z,38.13
2023-06-27T10:34:14.551Z,38.28
2023-06-27T10:35:14.321Z,38.48
2023-06-27T10:36:14.423Z,37.70
2023-06-27T10:37:14.409Z,37.40
2023-06-27T10:38:14.437Z,37.32
2023-06-27T10:39:14.550Z,37.06
2023-06-27T10:40:15.161Z,36.91
2023-06-27T10:41:14.624Z,37.13
2023-06-27T10:42:14.625Z,37.02
2023-06-27T10:43:14.648Z,37.08
2023-06-27T10:44:14.673Z,37.02
2023-06-27T10:45:15.044Z,37.36
2023-06-27T10:46:14.705Z,36.89
2023-06-27T10:47:14.698Z,37.06
2023-06-27T10:48:14.804Z,36.92
2023-06-27T10:49:15.073Z,36.87
2023-06-27T10:50:14.781Z,36.92
2023-06-27T10:51:14.747Z,37.06
2023-06-27T10:52:14.801Z,36.69
2023-06-27T10:53:14.865Z,36.39
2023-06-27T10:54:14.846Z,36.74
2023-06-27T10:55:14.920Z,36.80
2023-06-27T10:56:14.887Z,36.60
2023-06-27T10:57:14.915Z,36.47
2023-06-27T10:58:14.951Z,36.48
2023-06-27T10:59:14.963Z,36.20
2023-06-27T11:00:14.967Z,36.57
2023-06-27T11:01:14.998Z,36.72
2023-06-27T11:02:15.154Z,36.62
2023-06-27T11:03:15.218Z,36.31
2023-06-27T11:04:15.330Z,36.22
2023-06-27T11:05:15.246Z,36.36
2023-06-27T11:06:15.233Z,36.26
2023-06-27T11:07:15.221Z,36.30
2023-06-27T11:08:15.249Z,36.16
2023-06-27T11:09:15.298Z,36.02
2023-06-27T11:10:15.333Z,36.09
2023-06-27T11:11:15.395Z,36.14
2023-06-27T11:12:15.463Z,36.42
2023-06-27T11:13:15.468Z,36.45
2023-06-27T11:14:15.480Z,36.76
2023-06-27T11:15:15.529Z,37.10
2023-06-27T11:16:15.572Z,37.02
2023-06-27T11:17:15.621Z,37.64
2023-06-27T11:18:15.671Z,37.37
2023-06-27T11:19:20.663Z,37.20
2023-06-27T11:20:16.721Z,37.13
2023-06-27T11:21:16.681Z,37.10
2023-06-27T11:22:15.718Z,37.07
2023-06-27T11:23:15.708Z,37.01
2023-06-27T11:24:15.728Z,36.98
2023-06-27T11:25:15.707Z,36.94
2023-06-27T11:26:15.697Z,36.93
2023-06-27T11:27:15.673Z,36.91
2023-06-27T11:28:15.680Z,36.91
2023-06-27T11:29:15.689Z,36.89
2023-06-27T11:30:15.662Z,36.88
2023-06-27T11:31:15.664Z,36.86
2023-06-27T11:32:15.653Z,36.88
2023-06-27T11:33:15.688Z,36.88
2023-06-27T11:34:15.758Z,36.89
2023-06-27T11:35:15.776Z,36.89
2023-06-27T11:36:15.804Z,36.92
2023-06-27T11:37:15.854Z,36.91
2023-06-27T11:38:15.892Z,36.91
2023-06-27T11:39:15.940Z,36.93
2023-06-27T11:40:15.954Z,36.94
2023-06-27T11:41:15.997Z,36.93
2023-06-27T11:42:16.050Z,36.92
2023-06-27T11:43:16.098Z,36.94
2023-06-27T11:44:19.096Z,36.94
2023-06-27T11:45:16.091Z,36.94
2023-06-27T11:46:16.082Z,36.91
2023-06-27T11:47:16.081Z,36.92
2023-06-27T11:48:16.120Z,36.93
2023-06-27T11:49:16.075Z,36.94
2023-06-27T11:50:16.061Z,36.95
2023-06-27T11:51:16.054Z,36.90
2023-06-27T11:52:16.058Z,36.92
2023-06-27T11:53:16.053Z,36.92
2023-06-27T11:54:16.069Z,36.93
2023-06-27T11:55:16.060Z,36.93
2023-06-27T11:57:16.110Z,36.90
2023-06-27T11:58:16.009Z,36.93
2023-06-27T11:59:16.028Z,36.93
2023-06-27T12:00:18.075Z,36.92
2023-06-27T12:01:16.053Z,36.92
2023-06-27T12:02:15.984Z,36.92
2023-06-27T12:03:16.160Z,36.92
2023-06-27T12:04:16.069Z,36.91
2023-06-27T12:05:16.000Z,36.90
2023-06-27T12:06:17.508Z,36.91
2023-06-27T12:07:16.063Z,36.90
2023-06-27T12:08:15.945Z,36.91
2023-06-27T12:09:15.964Z,36.91
2023-06-27T12:10:15.945Z,36.89
2023-06-27T12:11:15.959Z,36.89
2023-06-27T12:12:18.785Z,36.86
2023-06-27T12:13:15.985Z,36.86
2023-06-27T12:14:15.936Z,36.86
2023-06-27T12:15:15.926Z,36.85
2023-06-27T12:16:15.930Z,36.82
2023-06-27T12:17:15.890Z,36.80
2023-06-27T12:18:18.157Z,36.77
2023-06-27T12:19:15.883Z,36.79
2023-06-27T12:20:15.909Z,36.85
2023-06-27T12:21:15.868Z,36.86
2023-06-27T12:22:15.857Z,36.89
2023-06-27T12:23:15.881Z,37.42
2023-06-27T12:24:15.930Z,38.67
2023-06-27T12:25:16.002Z,37.51
2023-06-27T12:26:16.010Z,36.95
2023-06-27T12:27:16.048Z,36.45
2023-06-27T12:28:16.067Z,36.71
2023-06-27T12:29:17.532Z,36.70
2023-06-27T12:30:16.033Z,36.40
2023-06-27T12:31:16.045Z,36.60
2023-06-27T12:32:16.094Z,36.96
2023-06-27T12:33:16.018Z,37.16
2023-06-27T12:34:16.008Z,37.74
2023-06-27T12:35:16.023Z,38.13
2023-06-27T12:36:16.018Z,38.01
2023-06-27T12:37:15.992Z,37.76
2023-06-27T12:38:16.028Z,38.06
2023-06-27T12:39:15.973Z,38.30
2023-06-27T12:40:18.587Z,38.42
2023-06-27T12:41:15.995Z,38.39
2023-06-27T12:42:15.952Z,38.10
2023-06-27T12:43:15.957Z,38.08
2023-06-27T12:44:15.985Z,38.61
2023-06-27T12:45:15.976Z,38.38
2023-06-27T12:46:15.934Z,38.43
2023-06-27T12:47:15.930Z,38.02
2023-06-27T12:48:15.997Z,37.69
2023-06-27T12:49:15.922Z,38.09
2023-06-27T12:50:15.921Z,37.36
2023-06-27T12:51:19.336Z,37.34
2023-06-27T12:52:15.891Z,37.79
2023-06-27T12:53:15.887Z,37.89
2023-06-27T12:54:15.920Z,38.00
2023-06-27T12:55:15.901Z,38.04
2023-06-27T12:56:15.868Z,38.04